sensor_id;sensor_type;location;lat;lon;timestamp;P1;durP1;ratioP1;P2;durP2;ratioP2
76165;SDS011;65085;46.718;20.136;2023-02-01T00:00:51;7.82;;;1.50;;
76165;SDS011;65085;46.718;20.136;2023-02-01T00:03:55;6.03;;;1.80;;
76165;SDS011;65085;46.718;20.136;2023-02-01T00:06:58;6.68;;;1.85;;
76165;SDS011;65085;46.718;20.136;2023-02-01T00:10:01;8.40;;;2.10;;
76165;SDS011;65085;46.718;20.136;2023-02-01T00:13:05;6.90;;;2.08;;
76165;SDS011;65085;46.718;20.136;2023-02-01T00:16:09;7.90;;;2.33;;
76165;SDS011;65085;46.718;20.136;2023-02-01T00:19:16;7.78;;;2.88;;
76165;SDS011;65085;46.718;20.136;2023-02-01T00:22:18;6.10;;;2.55;;
76165;SDS011;65085;46.718;20.136;2023-02-01T00:25:21;13.50;;;3.47;;
76165;SDS011;65085;46.718;20.136;2023-02-01T00:28:24;26.25;;;5.38;;
76165;SDS011;65085;46.718;20.136;2023-02-01T00:31:27;13.30;;;3.35;;
76165;SDS011;65085;46.718;20.136;2023-02-01T00:34:32;12.82;;;4.13;;
76165;SDS011;65085;46.718;20.136;2023-02-01T00:37:35;7.35;;;2.53;;
76165;SDS011;65085;46.718;20.136;2023-02-01T00:40:37;8.07;;;3.20;;
76165;SDS011;65085;46.718;20.136;2023-02-01T00:43:40;7.25;;;3.10;;
76165;SDS011;65085;46.718;20.136;2023-02-01T00:46:44;7.38;;;2.72;;
76165;SDS011;65085;46.718;20.136;2023-02-01T00:49:48;6.05;;;2.35;;
76165;SDS011;65085;46.718;20.136;2023-02-01T00:52:50;6.85;;;2.00;;
76165;SDS011;65085;46.718;20.136;2023-02-01T00:55:53;6.63;;;1.87;;
76165;SDS011;65085;46.718;20.136;2023-02-01T00:58:56;6.53;;;1.90;;
76165;SDS011;65085;46.718;20.136;2023-02-01T01:01:59;4.53;;;1.60;;
76165;SDS011;65085;46.718;20.136;2023-02-01T01:05:04;4.20;;;1.90;;
76165;SDS011;65085;46.718;20.136;2023-02-01T01:08:07;5.60;;;2.15;;
76165;SDS011;65085;46.718;20.136;2023-02-01T01:11:10;6.57;;;1.77;;
76165;SDS011;65085;46.718;20.136;2023-02-01T01:14:15;5.43;;;1.75;;
76165;SDS011;65085;46.718;20.136;2023-02-01T01:17:18;4.53;;;2.08;;
76165;SDS011;65085;46.718;20.136;2023-02-01T01:20:22;5.53;;;2.22;;
76165;SDS011;65085;46.718;20.136;2023-02-01T01:23:25;5.65;;;2.42;;
76165;SDS011;65085;46.718;20.136;2023-02-01T01:26:29;5.07;;;2.50;;
76165;SDS011;65085;46.718;20.136;2023-02-01T01:29:32;8.88;;;2.95;;
76165;SDS011;65085;46.718;20.136;2023-02-01T01:32:34;8.05;;;2.83;;
76165;SDS011;65085;46.718;20.136;2023-02-01T01:35:39;9.48;;;3.38;;
76165;SDS011;65085;46.718;20.136;2023-02-01T01:38:42;10.80;;;3.97;;
76165;SDS011;65085;46.718;20.136;2023-02-01T01:41:45;15.80;;;4.47;;
76165;SDS011;65085;46.718;20.136;2023-02-01T01:44:57;11.98;;;3.67;;
76165;SDS011;65085;46.718;20.136;2023-02-01T01:48:04;15.25;;;3.92;;
76165;SDS011;65085;46.718;20.136;2023-02-01T01:51:12;9.38;;;3.50;;
76165;SDS011;65085;46.718;20.136;2023-02-01T01:54:19;7.78;;;3.35;;
76165;SDS011;65085;46.718;20.136;2023-02-01T01:57:26;9.13;;;3.50;;
76165;SDS011;65085;46.718;20.136;2023-02-01T02:00:33;9.45;;;3.25;;
76165;SDS011;65085;46.718;20.136;2023-02-01T02:03:37;10.50;;;4.18;;
76165;SDS011;65085;46.718;20.136;2023-02-01T02:06:45;12.00;;;4.43;;
76165;SDS011;65085;46.718;20.136;2023-02-01T02:09:52;9.48;;;3.05;;
76165;SDS011;65085;46.718;20.136;2023-02-01T02:13:02;11.10;;;3.47;;
76165;SDS011;65085;46.718;20.136;2023-02-01T02:16:09;12.18;;;4.05;;
76165;SDS011;65085;46.718;20.136;2023-02-01T02:19:34;14.48;;;4.00;;
76165;SDS011;65085;46.718;20.136;2023-02-01T02:30:36;10.50;;;3.93;;
76165;SDS011;65085;46.718;20.136;2023-02-01T02:34:06;25.75;;;8.00;;
76165;SDS011;65085;46.718;20.136;2023-02-01T02:37:15;7.65;;;3.80;;
76165;SDS011;65085;46.718;20.136;2023-02-01T02:40:29;8.13;;;3.95;;
76165;SDS011;65085;46.718;20.136;2023-02-01T02:43:37;7.28;;;3.58;;
76165;SDS011;65085;46.718;20.136;2023-02-01T02:47:10;6.70;;;3.73;;
76165;SDS011;65085;46.718;20.136;2023-02-01T02:50:32;5.95;;;2.90;;
76165;SDS011;65085;46.718;20.136;2023-02-01T02:54:07;7.53;;;3.42;;
76165;SDS011;65085;46.718;20.136;2023-02-01T02:57:46;18.27;;;7.07;;
76165;SDS011;65085;46.718;20.136;2023-02-01T03:01:07;20.65;;;7.70;;
76165;SDS011;65085;46.718;20.136;2023-02-01T03:04:29;10.03;;;4.00;;
76165;SDS011;65085;46.718;20.136;2023-02-01T03:07:48;8.60;;;2.97;;
76165;SDS011;65085;46.718;20.136;2023-02-01T03:10:56;8.82;;;3.10;;
76165;SDS011;65085;46.718;20.136;2023-02-01T03:14:02;4.82;;;2.45;;
76165;SDS011;65085;46.718;20.136;2023-02-01T03:17:10;6.47;;;3.00;;
76165;SDS011;65085;46.718;20.136;2023-02-01T03:20:15;8.60;;;3.10;;
76165;SDS011;65085;46.718;20.136;2023-02-01T03:23:25;9.27;;;3.05;;
76165;SDS011;65085;46.718;20.136;2023-02-01T03:26:31;11.27;;;4.63;;
76165;SDS011;65085;46.718;20.136;2023-02-01T03:29:44;7.63;;;3.35;;
76165;SDS011;65085;46.718;20.136;2023-02-01T03:32:52;7.50;;;3.20;;
76165;SDS011;65085;46.718;20.136;2023-02-01T03:36:06;10.93;;;3.80;;
76165;SDS011;65085;46.718;20.136;2023-02-01T03:39:20;11.68;;;3.80;;
76165;SDS011;65085;46.718;20.136;2023-02-01T03:42:28;12.57;;;5.60;;
76165;SDS011;65085;46.718;20.136;2023-02-01T03:45:38;18.50;;;6.53;;
76165;SDS011;65085;46.718;20.136;2023-02-01T03:48:45;16.10;;;6.30;;
76165;SDS011;65085;46.718;20.136;2023-02-01T03:51:50;8.30;;;3.77;;
76165;SDS011;65085;46.718;20.136;2023-02-01T03:54:55;14.27;;;4.10;;
76165;SDS011;65085;46.718;20.136;2023-02-01T03:58:00;14.63;;;4.90;;
76165;SDS011;65085;46.718;20.136;2023-02-01T04:01:08;9.95;;;3.78;;
76165;SDS011;65085;46.718;20.136;2023-02-01T04:04:13;9.35;;;2.70;;
76165;SDS011;65085;46.718;20.136;2023-02-01T04:07:25;10.10;;;3.90;;
76165;SDS011;65085;46.718;20.136;2023-02-01T04:10:29;14.10;;;5.75;;
76165;SDS011;65085;46.718;20.136;2023-02-01T04:13:32;20.80;;;7.20;;
76165;SDS011;65085;46.718;20.136;2023-02-01T04:16:35;43.95;;;13.05;;
76165;SDS011;65085;46.718;20.136;2023-02-01T04:19:38;74.95;;;21.50;;
76165;SDS011;65085;46.718;20.136;2023-02-01T04:22:41;49.30;;;14.47;;
76165;SDS011;65085;46.718;20.136;2023-02-01T04:25:45;26.15;;;8.60;;
76165;SDS011;65085;46.718;20.136;2023-02-01T04:28:48;14.38;;;5.63;;
76165;SDS011;65085;46.718;20.136;2023-02-01T04:31:50;18.08;;;6.15;;
76165;SDS011;65085;46.718;20.136;2023-02-01T04:34:53;8.68;;;3.88;;
76165;SDS011;65085;46.718;20.136;2023-02-01T04:37:56;8.27;;;3.97;;
76165;SDS011;65085;46.718;20.136;2023-02-01T04:41:00;20.40;;;6.13;;
76165;SDS011;65085;46.718;20.136;2023-02-01T04:44:03;16.33;;;7.15;;
76165;SDS011;65085;46.718;20.136;2023-02-01T04:47:06;27.05;;;10.10;;
76165;SDS011;65085;46.718;20.136;2023-02-01T04:50:09;19.73;;;7.10;;
76165;SDS011;65085;46.718;20.136;2023-02-01T04:53:14;14.73;;;7.13;;
76165;SDS011;65085;46.718;20.136;2023-02-01T04:56:18;13.70;;;5.65;;
76165;SDS011;65085;46.718;20.136;2023-02-01T04:59:21;10.52;;;4.70;;
76165;SDS011;65085;46.718;20.136;2023-02-01T05:02:25;20.95;;;5.28;;
76165;SDS011;65085;46.718;20.136;2023-02-01T05:05:27;18.13;;;5.13;;
76165;SDS011;65085;46.718;20.136;2023-02-01T05:08:31;10.40;;;4.50;;
76165;SDS011;65085;46.718;20.136;2023-02-01T05:11:36;18.13;;;5.78;;
76165;SDS011;65085;46.718;20.136;2023-02-01T05:14:57;19.90;;;6.70;;
76165;SDS011;65085;46.718;20.136;2023-02-01T05:18:00;12.38;;;4.47;;
76165;SDS011;65085;46.718;20.136;2023-02-01T05:21:03;13.40;;;4.50;;
76165;SDS011;65085;46.718;20.136;2023-02-01T05:24:07;10.07;;;3.63;;
76165;SDS011;65085;46.718;20.136;2023-02-01T05:27:16;11.90;;;5.00;;
76165;SDS011;65085;46.718;20.136;2023-02-01T05:30:19;11.10;;;4.72;;
76165;SDS011;65085;46.718;20.136;2023-02-01T05:33:22;18.80;;;5.97;;
76165;SDS011;65085;46.718;20.136;2023-02-01T05:36:25;15.25;;;5.47;;
76165;SDS011;65085;46.718;20.136;2023-02-01T05:39:28;13.40;;;5.57;;
76165;SDS011;65085;46.718;20.136;2023-02-01T05:42:32;13.32;;;5.07;;
76165;SDS011;65085;46.718;20.136;2023-02-01T05:45:35;11.45;;;4.68;;
76165;SDS011;65085;46.718;20.136;2023-02-01T05:48:37;17.98;;;5.72;;
76165;SDS011;65085;46.718;20.136;2023-02-01T05:51:40;8.15;;;3.53;;
76165;SDS011;65085;46.718;20.136;2023-02-01T05:54:43;7.07;;;3.57;;
76165;SDS011;65085;46.718;20.136;2023-02-01T05:57:47;7.50;;;3.33;;
76165;SDS011;65085;46.718;20.136;2023-02-01T06:00:51;8.85;;;3.45;;
76165;SDS011;65085;46.718;20.136;2023-02-01T06:03:53;12.45;;;4.40;;
76165;SDS011;65085;46.718;20.136;2023-02-01T06:06:56;17.10;;;5.75;;
76165;SDS011;65085;46.718;20.136;2023-02-01T06:09:59;15.30;;;5.93;;
76165;SDS011;65085;46.718;20.136;2023-02-01T06:13:03;12.30;;;4.18;;
76165;SDS011;65085;46.718;20.136;2023-02-01T06:16:06;8.05;;;3.78;;
76165;SDS011;65085;46.718;20.136;2023-02-01T06:19:10;14.15;;;5.15;;
76165;SDS011;65085;46.718;20.136;2023-02-01T06:22:13;18.77;;;5.93;;
76165;SDS011;65085;46.718;20.136;2023-02-01T06:25:15;15.57;;;5.63;;
76165;SDS011;65085;46.718;20.136;2023-02-01T06:28:20;14.48;;;6.05;;
76165;SDS011;65085;46.718;20.136;2023-02-01T06:31:23;20.02;;;6.32;;
76165;SDS011;65085;46.718;20.136;2023-02-01T06:34:28;16.90;;;5.93;;
76165;SDS011;65085;46.718;20.136;2023-02-01T06:37:30;17.05;;;6.53;;
76165;SDS011;65085;46.718;20.136;2023-02-01T06:40:33;8.73;;;3.80;;
76165;SDS011;65085;46.718;20.136;2023-02-01T06:43:39;12.00;;;4.90;;
76165;SDS011;65085;46.718;20.136;2023-02-01T06:46:42;12.75;;;5.53;;
76165;SDS011;65085;46.718;20.136;2023-02-01T06:49:45;14.35;;;5.57;;
76165;SDS011;65085;46.718;20.136;2023-02-01T06:52:48;12.63;;;5.35;;
76165;SDS011;65085;46.718;20.136;2023-02-01T06:55:51;20.33;;;8.00;;
76165;SDS011;65085;46.718;20.136;2023-02-01T06:59:06;10.90;;;3.85;;
76165;SDS011;65085;46.718;20.136;2023-02-01T07:07:05;15.98;;;6.32;;
76165;SDS011;65085;46.718;20.136;2023-02-01T07:11:15;14.90;;;6.13;;
76165;SDS011;65085;46.718;20.136;2023-02-01T07:14:12;15.40;;;6.93;;
76165;SDS011;65085;46.718;20.136;2023-02-01T07:17:15;12.75;;;6.05;;
76165;SDS011;65085;46.718;20.136;2023-02-01T07:20:17;13.20;;;6.47;;
76165;SDS011;65085;46.718;20.136;2023-02-01T07:23:21;10.95;;;4.82;;
76165;SDS011;65085;46.718;20.136;2023-02-01T07:26:34;14.32;;;5.85;;
76165;SDS011;65085;46.718;20.136;2023-02-01T07:34:54;13.35;;;5.32;;
76165;SDS011;65085;46.718;20.136;2023-02-01T07:38:01;13.43;;;6.53;;
76165;SDS011;65085;46.718;20.136;2023-02-01T07:53:12;10.25;;;5.50;;
76165;SDS011;65085;46.718;20.136;2023-02-01T07:56:16;9.93;;;5.22;;
76165;SDS011;65085;46.718;20.136;2023-02-01T07:59:21;11.25;;;5.28;;
76165;SDS011;65085;46.718;20.136;2023-02-01T08:02:24;13.48;;;5.57;;
76165;SDS011;65085;46.718;20.136;2023-02-01T08:05:28;16.33;;;6.87;;
76165;SDS011;65085;46.718;20.136;2023-02-01T08:08:32;9.77;;;4.60;;
76165;SDS011;65085;46.718;20.136;2023-02-01T08:11:35;16.00;;;6.97;;
76165;SDS011;65085;46.718;20.136;2023-02-01T08:14:40;6.75;;;3.75;;
76165;SDS011;65085;46.718;20.136;2023-02-01T08:17:46;10.20;;;3.90;;
76165;SDS011;65085;46.718;20.136;2023-02-01T08:20:50;6.60;;;3.87;;
76165;SDS011;65085;46.718;20.136;2023-02-01T08:23:53;7.00;;;3.50;;
76165;SDS011;65085;46.718;20.136;2023-02-01T08:26:58;7.20;;;3.67;;
76165;SDS011;65085;46.718;20.136;2023-02-01T08:30:03;6.03;;;3.42;;
76165;SDS011;65085;46.718;20.136;2023-02-01T08:33:07;13.60;;;6.03;;
76165;SDS011;65085;46.718;20.136;2023-02-01T08:36:11;10.77;;;4.70;;
76165;SDS011;65085;46.718;20.136;2023-02-01T08:39:17;7.05;;;3.60;;
76165;SDS011;65085;46.718;20.136;2023-02-01T08:42:20;7.65;;;3.88;;
76165;SDS011;65085;46.718;20.136;2023-02-01T08:45:41;7.20;;;3.72;;
76165;SDS011;65085;46.718;20.136;2023-02-01T08:48:46;7.45;;;3.80;;
76165;SDS011;65085;46.718;20.136;2023-02-01T08:51:54;7.50;;;3.30;;
76165;SDS011;65085;46.718;20.136;2023-02-01T08:55:04;5.47;;;3.08;;
76165;SDS011;65085;46.718;20.136;2023-02-01T08:58:10;6.93;;;3.38;;
76165;SDS011;65085;46.718;20.136;2023-02-01T09:01:16;7.18;;;2.90;;
76165;SDS011;65085;46.718;20.136;2023-02-01T09:04:34;6.05;;;3.15;;
76165;SDS011;65085;46.718;20.136;2023-02-01T09:07:42;5.97;;;2.93;;
76165;SDS011;65085;46.718;20.136;2023-02-01T09:11:19;7.55;;;3.85;;
76165;SDS011;65085;46.718;20.136;2023-02-01T09:14:32;8.48;;;3.83;;
76165;SDS011;65085;46.718;20.136;2023-02-01T09:17:45;5.75;;;3.13;;
76165;SDS011;65085;46.718;20.136;2023-02-01T09:20:53;7.32;;;2.90;;
76165;SDS011;65085;46.718;20.136;2023-02-01T09:24:00;4.37;;;2.83;;
76165;SDS011;65085;46.718;20.136;2023-02-01T09:27:03;5.85;;;3.20;;
76165;SDS011;65085;46.718;20.136;2023-02-01T09:30:09;5.38;;;3.38;;
76165;SDS011;65085;46.718;20.136;2023-02-01T09:33:17;6.13;;;2.90;;
76165;SDS011;65085;46.718;20.136;2023-02-01T09:36:22;6.45;;;3.78;;
76165;SDS011;65085;46.718;20.136;2023-02-01T09:39:36;13.47;;;4.90;;
76165;SDS011;65085;46.718;20.136;2023-02-01T09:42:50;9.93;;;4.07;;
76165;SDS011;65085;46.718;20.136;2023-02-01T09:46:21;6.95;;;2.75;;
76165;SDS011;65085;46.718;20.136;2023-02-01T09:49:27;6.00;;;2.78;;
76165;SDS011;65085;46.718;20.136;2023-02-01T09:52:34;4.47;;;2.80;;
76165;SDS011;65085;46.718;20.136;2023-02-01T09:55:45;4.90;;;2.70;;
76165;SDS011;65085;46.718;20.136;2023-02-01T09:58:54;8.93;;;3.10;;
76165;SDS011;65085;46.718;20.136;2023-02-01T10:02:04;5.47;;;3.22;;
76165;SDS011;65085;46.718;20.136;2023-02-01T10:05:16;6.97;;;3.40;;
76165;SDS011;65085;46.718;20.136;2023-02-01T10:08:31;7.75;;;3.08;;
76165;SDS011;65085;46.718;20.136;2023-02-01T10:11:45;6.23;;;2.80;;
76165;SDS011;65085;46.718;20.136;2023-02-01T10:14:59;4.53;;;2.40;;
76165;SDS011;65085;46.718;20.136;2023-02-01T10:18:17;7.18;;;2.30;;
76165;SDS011;65085;46.718;20.136;2023-02-01T10:21:40;4.43;;;2.88;;
76165;SDS011;65085;46.718;20.136;2023-02-01T10:24:53;4.97;;;2.58;;
76165;SDS011;65085;46.718;20.136;2023-02-01T10:28:07;4.70;;;2.60;;
76165;SDS011;65085;46.718;20.136;2023-02-01T10:31:18;5.25;;;2.50;;
76165;SDS011;65085;46.718;20.136;2023-02-01T10:34:26;9.40;;;3.13;;
76165;SDS011;65085;46.718;20.136;2023-02-01T10:37:32;5.72;;;2.92;;
76165;SDS011;65085;46.718;20.136;2023-02-01T10:40:37;5.30;;;2.65;;
76165;SDS011;65085;46.718;20.136;2023-02-01T10:43:42;7.67;;;3.43;;
76165;SDS011;65085;46.718;20.136;2023-02-01T10:46:46;6.55;;;3.08;;
76165;SDS011;65085;46.718;20.136;2023-02-01T10:49:50;5.20;;;2.70;;
76165;SDS011;65085;46.718;20.136;2023-02-01T10:53:01;5.38;;;2.65;;
76165;SDS011;65085;46.718;20.136;2023-02-01T10:56:09;5.95;;;3.00;;
76165;SDS011;65085;46.718;20.136;2023-02-01T10:59:16;11.20;;;4.23;;
76165;SDS011;65085;46.718;20.136;2023-02-01T11:02:23;7.85;;;3.10;;
76165;SDS011;65085;46.718;20.136;2023-02-01T11:05:33;9.38;;;4.00;;
76165;SDS011;65085;46.718;20.136;2023-02-01T11:08:48;7.18;;;3.15;;
76165;SDS011;65085;46.718;20.136;2023-02-01T11:11:54;12.95;;;3.72;;
76165;SDS011;65085;46.718;20.136;2023-02-01T11:15:11;11.80;;;4.40;;
76165;SDS011;65085;46.718;20.136;2023-02-01T11:18:17;12.20;;;4.30;;
76165;SDS011;65085;46.718;20.136;2023-02-01T11:21:21;9.52;;;3.13;;
76165;SDS011;65085;46.718;20.136;2023-02-01T11:24:25;8.57;;;3.70;;
76165;SDS011;65085;46.718;20.136;2023-02-01T11:27:31;7.20;;;3.42;;
76165;SDS011;65085;46.718;20.136;2023-02-01T11:30:43;8.13;;;3.97;;
76165;SDS011;65085;46.718;20.136;2023-02-01T11:33:51;6.70;;;3.58;;
76165;SDS011;65085;46.718;20.136;2023-02-01T11:36:58;9.48;;;4.18;;
76165;SDS011;65085;46.718;20.136;2023-02-01T11:40:22;7.38;;;4.72;;
76165;SDS011;65085;46.718;20.136;2023-02-01T11:43:28;8.13;;;4.50;;
76165;SDS011;65085;46.718;20.136;2023-02-01T11:46:33;11.50;;;6.87;;
76165;SDS011;65085;46.718;20.136;2023-02-01T11:49:37;17.15;;;7.05;;
76165;SDS011;65085;46.718;20.136;2023-02-01T11:52:49;7.68;;;3.97;;
76165;SDS011;65085;46.718;20.136;2023-02-01T11:56:13;7.35;;;4.18;;
76165;SDS011;65085;46.718;20.136;2023-02-01T11:59:28;10.02;;;4.57;;
76165;SDS011;65085;46.718;20.136;2023-02-01T12:06:31;5.25;;;3.28;;
76165;SDS011;65085;46.718;20.136;2023-02-01T12:09:52;7.03;;;2.45;;
76165;SDS011;65085;46.718;20.136;2023-02-01T12:13:21;4.07;;;2.80;;
76165;SDS011;65085;46.718;20.136;2023-02-01T12:16:41;5.88;;;3.30;;
76165;SDS011;65085;46.718;20.136;2023-02-01T12:20:04;6.87;;;2.77;;
76165;SDS011;65085;46.718;20.136;2023-02-01T12:23:23;10.50;;;3.22;;
76165;SDS011;65085;46.718;20.136;2023-02-01T12:26:42;6.10;;;3.50;;
76165;SDS011;65085;46.718;20.136;2023-02-01T12:30:02;4.68;;;3.05;;
76165;SDS011;65085;46.718;20.136;2023-02-01T12:33:23;11.40;;;5.22;;
76165;SDS011;65085;46.718;20.136;2023-02-01T12:36:43;8.57;;;3.90;;
76165;SDS011;65085;46.718;20.136;2023-02-01T12:39:57;11.30;;;4.07;;
76165;SDS011;65085;46.718;20.136;2023-02-01T12:43:09;5.60;;;3.20;;
76165;SDS011;65085;46.718;20.136;2023-02-01T12:46:19;10.18;;;3.95;;
76165;SDS011;65085;46.718;20.136;2023-02-01T12:49:28;8.13;;;4.28;;
76165;SDS011;65085;46.718;20.136;2023-02-01T12:52:47;16.13;;;6.57;;
76165;SDS011;65085;46.718;20.136;2023-02-01T12:55:53;8.32;;;3.95;;
76165;SDS011;65085;46.718;20.136;2023-02-01T12:58:58;9.52;;;3.90;;
76165;SDS011;65085;46.718;20.136;2023-02-01T13:02:08;7.60;;;3.65;;
76165;SDS011;65085;46.718;20.136;2023-02-01T13:05:18;6.88;;;3.60;;
76165;SDS011;65085;46.718;20.136;2023-02-01T13:08:26;10.70;;;5.10;;
76165;SDS011;65085;46.718;20.136;2023-02-01T13:11:42;7.57;;;3.78;;
76165;SDS011;65085;46.718;20.136;2023-02-01T13:14:48;5.03;;;2.60;;
76165;SDS011;65085;46.718;20.136;2023-02-01T13:18:03;13.20;;;5.32;;
76165;SDS011;65085;46.718;20.136;2023-02-01T13:21:08;6.97;;;2.97;;
76165;SDS011;65085;46.718;20.136;2023-02-01T13:24:24;6.40;;;3.33;;
76165;SDS011;65085;46.718;20.136;2023-02-01T13:27:33;7.43;;;3.20;;
76165;SDS011;65085;46.718;20.136;2023-02-01T13:30:45;6.38;;;3.15;;
76165;SDS011;65085;46.718;20.136;2023-02-01T13:38:37;6.75;;;2.58;;
76165;SDS011;65085;46.718;20.136;2023-02-01T13:41:59;9.67;;;3.53;;
76165;SDS011;65085;46.718;20.136;2023-02-01T13:45:05;5.55;;;2.97;;
76165;SDS011;65085;46.718;20.136;2023-02-01T13:48:21;4.18;;;2.60;;
76165;SDS011;65085;46.718;20.136;2023-02-01T13:51:35;5.30;;;3.10;;
76165;SDS011;65085;46.718;20.136;2023-02-01T13:54:40;5.80;;;2.80;;
76165;SDS011;65085;46.718;20.136;2023-02-01T13:57:44;7.77;;;3.53;;
76165;SDS011;65085;46.718;20.136;2023-02-01T14:00:48;8.60;;;4.45;;
76165;SDS011;65085;46.718;20.136;2023-02-01T14:03:53;5.85;;;3.30;;
76165;SDS011;65085;46.718;20.136;2023-02-01T14:06:58;8.00;;;3.50;;
76165;SDS011;65085;46.718;20.136;2023-02-01T14:13:38;8.87;;;4.40;;
76165;SDS011;65085;46.718;20.136;2023-02-01T14:16:42;8.45;;;3.88;;
76165;SDS011;65085;46.718;20.136;2023-02-01T14:23:57;11.20;;;4.18;;
76165;SDS011;65085;46.718;20.136;2023-02-01T14:27:02;12.65;;;5.10;;
76165;SDS011;65085;46.718;20.136;2023-02-01T14:30:21;9.37;;;3.67;;
76165;SDS011;65085;46.718;20.136;2023-02-01T14:33:26;10.93;;;4.85;;
76165;SDS011;65085;46.718;20.136;2023-02-01T14:36:39;7.18;;;3.63;;
76165;SDS011;65085;46.718;20.136;2023-02-01T14:39:50;19.33;;;6.47;;
76165;SDS011;65085;46.718;20.136;2023-02-01T14:42:57;18.02;;;7.90;;
76165;SDS011;65085;46.718;20.136;2023-02-01T14:46:02;25.07;;;11.50;;
76165;SDS011;65085;46.718;20.136;2023-02-01T14:49:05;21.38;;;9.90;;
76165;SDS011;65085;46.718;20.136;2023-02-01T14:52:10;13.32;;;6.00;;
76165;SDS011;65085;46.718;20.136;2023-02-01T14:55:18;14.80;;;7.28;;
76165;SDS011;65085;46.718;20.136;2023-02-01T14:58:31;16.88;;;7.53;;
76165;SDS011;65085;46.718;20.136;2023-02-01T15:01:40;15.43;;;6.73;;
76165;SDS011;65085;46.718;20.136;2023-02-01T15:04:53;6.05;;;3.15;;
76165;SDS011;65085;46.718;20.136;2023-02-01T15:07:59;11.82;;;5.75;;
76165;SDS011;65085;46.718;20.136;2023-02-01T15:11:08;11.60;;;5.70;;
76165;SDS011;65085;46.718;20.136;2023-02-01T15:14:16;18.67;;;7.50;;
76165;SDS011;65085;46.718;20.136;2023-02-01T15:17:20;9.03;;;5.07;;
76165;SDS011;65085;46.718;20.136;2023-02-01T15:20:26;9.13;;;4.35;;
76165;SDS011;65085;46.718;20.136;2023-02-01T15:23:32;10.40;;;5.18;;
76165;SDS011;65085;46.718;20.136;2023-02-01T15:26:35;16.27;;;6.68;;
76165;SDS011;65085;46.718;20.136;2023-02-01T15:29:38;17.05;;;5.80;;
76165;SDS011;65085;46.718;20.136;2023-02-01T15:32:42;14.30;;;5.47;;
76165;SDS011;65085;46.718;20.136;2023-02-01T15:35:46;12.20;;;4.35;;
76165;SDS011;65085;46.718;20.136;2023-02-01T15:38:50;16.33;;;5.22;;
76165;SDS011;65085;46.718;20.136;2023-02-01T15:42:25;19.50;;;6.88;;
76165;SDS011;65085;46.718;20.136;2023-02-01T15:45:28;21.05;;;6.97;;
76165;SDS011;65085;46.718;20.136;2023-02-01T15:48:35;15.10;;;5.10;;
76165;SDS011;65085;46.718;20.136;2023-02-01T15:51:43;15.60;;;6.38;;
76165;SDS011;65085;46.718;20.136;2023-02-01T15:54:49;11.18;;;4.30;;
76165;SDS011;65085;46.718;20.136;2023-02-01T15:57:54;11.77;;;5.00;;
76165;SDS011;65085;46.718;20.136;2023-02-01T16:00:58;15.88;;;6.28;;
76165;SDS011;65085;46.718;20.136;2023-02-01T16:04:04;14.93;;;5.97;;
76165;SDS011;65085;46.718;20.136;2023-02-01T16:07:24;12.57;;;5.05;;
76165;SDS011;65085;46.718;20.136;2023-02-01T16:10:30;13.18;;;6.05;;
76165;SDS011;65085;46.718;20.136;2023-02-01T16:13:34;13.50;;;6.40;;
76165;SDS011;65085;46.718;20.136;2023-02-01T16:16:37;22.58;;;8.27;;
76165;SDS011;65085;46.718;20.136;2023-02-01T16:19:40;27.77;;;11.13;;
76165;SDS011;65085;46.718;20.136;2023-02-01T16:22:42;36.10;;;15.18;;
76165;SDS011;65085;46.718;20.136;2023-02-01T16:25:46;20.27;;;9.48;;
76165;SDS011;65085;46.718;20.136;2023-02-01T16:28:49;8.35;;;4.25;;
76165;SDS011;65085;46.718;20.136;2023-02-01T16:32:13;14.15;;;7.28;;
76165;SDS011;65085;46.718;20.136;2023-02-01T16:35:20;18.27;;;7.77;;
76165;SDS011;65085;46.718;20.136;2023-02-01T16:38:26;18.40;;;8.27;;
76165;SDS011;65085;46.718;20.136;2023-02-01T16:41:30;21.27;;;10.75;;
76165;SDS011;65085;46.718;20.136;2023-02-01T16:44:33;24.02;;;10.68;;
76165;SDS011;65085;46.718;20.136;2023-02-01T16:47:36;20.15;;;9.50;;
76165;SDS011;65085;46.718;20.136;2023-02-01T16:50:48;13.37;;;6.40;;
76165;SDS011;65085;46.718;20.136;2023-02-01T16:53:53;14.15;;;6.43;;
76165;SDS011;65085;46.718;20.136;2023-02-01T16:56:58;14.88;;;6.75;;
76165;SDS011;65085;46.718;20.136;2023-02-01T17:00:01;15.45;;;7.03;;
76165;SDS011;65085;46.718;20.136;2023-02-01T17:03:24;24.65;;;9.77;;
76165;SDS011;65085;46.718;20.136;2023-02-01T17:06:27;22.27;;;9.80;;
76165;SDS011;65085;46.718;20.136;2023-02-01T17:09:31;32.45;;;14.63;;
76165;SDS011;65085;46.718;20.136;2023-02-01T17:12:36;38.70;;;14.57;;
76165;SDS011;65085;46.718;20.136;2023-02-01T17:15:39;30.13;;;11.68;;
76165;SDS011;65085;46.718;20.136;2023-02-01T17:18:42;48.72;;;20.38;;
76165;SDS011;65085;46.718;20.136;2023-02-01T17:21:46;39.87;;;15.37;;
76165;SDS011;65085;46.718;20.136;2023-02-01T17:24:54;51.20;;;19.27;;
76165;SDS011;65085;46.718;20.136;2023-02-01T17:27:59;46.03;;;18.48;;
76165;SDS011;65085;46.718;20.136;2023-02-01T17:31:02;30.60;;;12.18;;
76165;SDS011;65085;46.718;20.136;2023-02-01T17:34:06;23.83;;;11.10;;
76165;SDS011;65085;46.718;20.136;2023-02-01T17:37:13;71.47;;;24.60;;
76165;SDS011;65085;46.718;20.136;2023-02-01T17:40:33;60.58;;;23.58;;
76165;SDS011;65085;46.718;20.136;2023-02-01T17:43:38;61.08;;;29.75;;
76165;SDS011;65085;46.718;20.136;2023-02-01T17:46:42;63.10;;;31.05;;
76165;SDS011;65085;46.718;20.136;2023-02-01T17:49:45;71.60;;;31.85;;
76165;SDS011;65085;46.718;20.136;2023-02-01T17:52:51;76.40;;;32.57;;
76165;SDS011;65085;46.718;20.136;2023-02-01T17:55:54;60.83;;;27.23;;
76165;SDS011;65085;46.718;20.136;2023-02-01T17:59:01;78.40;;;34.70;;
76165;SDS011;65085;46.718;20.136;2023-02-01T18:02:07;74.53;;;33.85;;
76165;SDS011;65085;46.718;20.136;2023-02-01T18:05:19;43.95;;;21.30;;
76165;SDS011;65085;46.718;20.136;2023-02-01T18:08:26;43.57;;;20.30;;
76165;SDS011;65085;46.718;20.136;2023-02-01T18:11:30;41.38;;;18.25;;
76165;SDS011;65085;46.718;20.136;2023-02-01T18:14:36;37.67;;;17.95;;
76165;SDS011;65085;46.718;20.136;2023-02-01T18:17:39;30.83;;;14.80;;
76165;SDS011;65085;46.718;20.136;2023-02-01T18:20:43;24.73;;;12.75;;
76165;SDS011;65085;46.718;20.136;2023-02-01T18:23:48;53.53;;;21.47;;
76165;SDS011;65085;46.718;20.136;2023-02-01T18:26:51;34.05;;;15.43;;
76165;SDS011;65085;46.718;20.136;2023-02-01T18:29:55;20.52;;;9.70;;
76165;SDS011;65085;46.718;20.136;2023-02-01T18:32:59;21.90;;;10.40;;
76165;SDS011;65085;46.718;20.136;2023-02-01T18:36:03;22.02;;;10.25;;
76165;SDS011;65085;46.718;20.136;2023-02-01T18:39:06;23.03;;;10.57;;
76165;SDS011;65085;46.718;20.136;2023-02-01T18:42:09;22.73;;;9.95;;
76165;SDS011;65085;46.718;20.136;2023-02-01T18:45:22;24.75;;;10.60;;
76165;SDS011;65085;46.718;20.136;2023-02-01T18:48:30;26.73;;;10.77;;
76165;SDS011;65085;46.718;20.136;2023-02-01T18:51:33;18.45;;;9.75;;
76165;SDS011;65085;46.718;20.136;2023-02-01T18:54:36;23.37;;;10.37;;
76165;SDS011;65085;46.718;20.136;2023-02-01T18:57:51;21.23;;;10.40;;
76165;SDS011;65085;46.718;20.136;2023-02-01T19:00:57;29.83;;;11.80;;
76165;SDS011;65085;46.718;20.136;2023-02-01T19:04:07;30.77;;;13.00;;
76165;SDS011;65085;46.718;20.136;2023-02-01T19:07:21;25.27;;;10.93;;
76165;SDS011;65085;46.718;20.136;2023-02-01T19:10:24;31.07;;;11.97;;